createdAt,value
2022-11-05T00:01:58.199Z,7.93
2022-11-05T00:04:43.237Z,8.83
2022-11-05T00:07:31.513Z,8.57
2022-11-05T00:10:06.728Z,8.63
2022-11-05T00:12:51.944Z,9.27
2022-11-05T00:15:36.840Z,8.13
2022-11-05T00:18:03.886Z,7.33
2022-11-05T00:20:30.468Z,10.50
2022-11-05T00:23:22.584Z,11.53
2022-11-05T00:26:03.550Z,8.90
2022-11-05T00:28:31.055Z,7.83
2022-11-05T00:31:03.366Z,8.80
2022-11-05T00:33:30.038Z,7.53
2022-11-05T00:35:56.675Z,6.60
2022-11-05T00:38:23.591Z,8.40
2022-11-05T00:40:50.314Z,10.17
2022-11-05T00:43:35.364Z,9.00
2022-11-05T00:46:01.917Z,7.43
2022-11-05T00:48:47.066Z,8.03
2022-11-05T00:51:13.627Z,8.20
2022-11-05T00:53:40.152Z,6.20
2022-11-05T00:56:06.962Z,8.30
2022-11-05T00:58:33.533Z,6.77
2022-11-05T01:01:01.848Z,6.43
2022-11-05T01:03:34.124Z,6.27
2022-11-05T01:06:15.843Z,6.87
2022-11-05T01:08:44.858Z,6.60
2022-11-05T01:11:33.378Z,9.60
2022-11-05T01:14:05.632Z,12.67
2022-11-05T01:16:32.720Z,5.67
2022-11-05T01:19:00.426Z,10.57
2022-11-05T01:21:26.936Z,9.57
2022-11-05T01:23:53.788Z,6.30
2022-11-05T01:26:20.394Z,6.13
2022-11-05T01:28:57.485Z,8.00
2022-11-05T01:31:24.641Z,12.10
2022-11-05T01:33:51.307Z,8.33
2022-11-05T01:36:18.798Z,5.40
2022-11-05T01:38:45.362Z,8.27
2022-11-05T01:41:11.880Z,8.43
2022-11-05T01:43:54.670Z,8.50
2022-11-05T01:46:29.432Z,7.13
2022-11-05T01:49:03.321Z,9.37
2022-11-05T01:51:30.920Z,5.93
2022-11-05T01:54:02.990Z,9.57
2022-11-05T01:56:36.044Z,6.67
2022-11-05T01:59:18.659Z,6.07
2022-11-05T02:01:45.518Z,8.33
2022-11-05T02:04:16.614Z,9.33
2022-11-05T02:06:46.308Z,6.27
2022-11-05T02:09:20.088Z,9.87
2022-11-05T02:11:47.395Z,7.17
2022-11-05T02:14:13.930Z,8.57
2022-11-05T02:16:40.441Z,9.23
2022-11-05T02:19:44.378Z,7.37
2022-11-05T02:22:38.215Z,8.40
2022-11-05T02:26:02.249Z,7.17
2022-11-05T02:28:52.859Z,5.30
2022-11-05T02:31:41.808Z,7.47
2022-11-05T02:34:27.469Z,9.23
2022-11-05T02:37:04.086Z,4.53
2022-11-05T02:39:42.438Z,8.07
2022-11-05T02:42:16.003Z,10.00
2022-11-05T02:44:52.052Z,8.70
2022-11-05T02:47:47.186Z,8.63
2022-11-05T02:50:17.923Z,10.40
2022-11-05T02:53:12.263Z,7.97
2022-11-05T02:56:02.152Z,8.73
2022-11-05T02:58:30.514Z,8.80
2022-11-05T03:00:58.174Z,6.93
2022-11-05T03:03:35.518Z,8.50
2022-11-05T03:06:35.608Z,12.47
2022-11-05T03:09:33.017Z,8.07
2022-11-05T03:12:33.565Z,11.73
2022-11-05T03:15:14.756Z,9.00
2022-11-05T03:17:50.218Z,8.97
2022-11-05T03:20:23.629Z,9.57
2022-11-05T03:23:08.547Z,9.07
2022-11-05T03:25:41.615Z,11.40
2022-11-05T03:28:10.907Z,7.73
2022-11-05T03:30:40.061Z,8.80
2022-11-05T03:33:15.051Z,10.57
2022-11-05T03:35:54.161Z,11.13
2022-11-05T03:38:34.780Z,7.37
2022-11-05T03:41:06.595Z,8.80
2022-11-05T03:43:40.557Z,10.33
2022-11-05T03:46:17.599Z,8.57
2022-11-05T03:48:52.854Z,8.90
2022-11-05T03:51:58.268Z,8.23
2022-11-05T03:54:25.616Z,10.67
2022-11-05T03:57:03.879Z,12.13
2022-11-05T03:59:38.210Z,10.47
2022-11-05T04:02:04.837Z,7.67
2022-11-05T04:04:31.433Z,8.53
2022-11-05T04:07:16.359Z,7.50
2022-11-05T04:10:02.024Z,10.20
2022-11-05T04:12:47.654Z,12.97
2022-11-05T04:15:14.246Z,12.20
2022-11-05T04:17:40.770Z,13.30
2022-11-05T04:20:26.546Z,8.33
2022-11-05T04:23:19.644Z,10.47
2022-11-05T04:25:46.177Z,15.03
2022-11-05T04:28:13.264Z,8.90
2022-11-05T04:30:40.045Z,8.00
2022-11-05T04:33:12.807Z,10.67
2022-11-05T04:35:42.548Z,11.37
2022-11-05T04:38:11.705Z,6.60
2022-11-05T04:40:38.629Z,7.97
2022-11-05T04:43:08.234Z,12.53
2022-11-05T04:45:37.292Z,9.97
2022-11-05T04:48:04.572Z,6.67
2022-11-05T04:50:31.652Z,7.07
2022-11-05T04:52:58.984Z,8.23
2022-11-05T04:55:26.477Z,10.93
2022-11-05T04:57:54.122Z,7.77
2022-11-05T05:00:22.777Z,7.70
2022-11-05T05:02:49.891Z,9.77
2022-11-05T05:05:16.553Z,8.97
2022-11-05T05:07:43.169Z,9.83
2022-11-05T05:10:10.409Z,8.73
2022-11-05T05:12:36.913Z,7.57
2022-11-05T05:15:04.192Z,7.90
2022-11-05T05:17:30.751Z,6.43
2022-11-05T05:20:15.684Z,6.80
2022-11-05T05:22:42.178Z,8.27
2022-11-05T05:25:08.818Z,10.70
2022-11-05T05:27:35.338Z,10.87
2022-11-05T05:30:02.030Z,7.97
2022-11-05T05:32:28.600Z,10.07
2022-11-05T05:34:55.127Z,9.60
2022-11-05T05:37:21.659Z,9.90
2022-11-05T05:39:48.608Z,10.47
2022-11-05T05:42:15.530Z,10.00
2022-11-05T05:44:42.693Z,7.50
2022-11-05T05:47:09.341Z,7.27
2022-11-05T05:49:35.871Z,12.07
2022-11-05T05:52:02.377Z,6.57
2022-11-05T05:54:33.400Z,7.80
2022-11-05T05:57:01.707Z,7.13
2022-11-05T05:59:28.289Z,6.83
2022-11-05T06:01:54.975Z,5.83
2022-11-05T06:04:21.701Z,7.93
2022-11-05T06:06:48.311Z,10.67
2022-11-05T06:09:15.408Z,8.77
2022-11-05T06:11:42.041Z,8.63
2022-11-05T06:14:12.950Z,7.33
2022-11-05T06:16:40.389Z,13.13
2022-11-05T06:19:07.899Z,7.07
2022-11-05T06:21:35.138Z,9.73
2022-11-05T06:24:03.419Z,12.90
2022-11-05T06:26:30.370Z,7.07
2022-11-05T06:28:57.245Z,9.47
2022-11-05T06:31:23.847Z,7.20
2022-11-05T06:33:50.856Z,8.80
2022-11-05T06:36:18.979Z,10.87
2022-11-05T06:38:45.922Z,11.20
2022-11-05T06:41:12.527Z,10.17
2022-11-05T06:43:39.491Z,8.60
2022-11-05T06:46:06.480Z,8.30
2022-11-05T06:48:33.352Z,8.47
2022-11-05T06:50:59.878Z,7.80
2022-11-05T06:53:26.716Z,8.33
2022-11-05T06:55:53.279Z,8.77
2022-11-05T06:58:19.986Z,9.87
2022-11-05T07:00:47.417Z,6.27
2022-11-05T07:03:14.496Z,9.23
2022-11-05T07:05:47.994Z,7.70
2022-11-05T07:08:15.385Z,9.73
2022-11-05T07:10:42.023Z,10.83
2022-11-05T07:13:09.080Z,8.07
2022-11-05T07:15:36.761Z,10.00
2022-11-05T07:18:04.135Z,10.23
2022-11-05T07:20:33.959Z,10.90
2022-11-05T07:23:06.410Z,10.27
2022-11-05T07:25:33.886Z,10.07
2022-11-05T07:28:00.540Z,11.00
2022-11-05T07:30:28.061Z,9.57
2022-11-05T07:32:55.193Z,9.83
2022-11-05T07:35:22.040Z,12.40
2022-11-05T07:37:51.413Z,7.97
2022-11-05T07:40:22.062Z,9.20
2022-11-05T07:42:50.880Z,9.90
2022-11-05T07:45:18.468Z,11.50
2022-11-05T07:47:52.070Z,9.23
2022-11-05T07:50:20.655Z,10.67
2022-11-05T07:52:48.672Z,12.73
2022-11-05T07:55:16.087Z,11.13
2022-11-05T07:57:50.597Z,12.73
2022-11-05T08:00:22.583Z,7.17
2022-11-05T08:03:08.922Z,9.23
2022-11-05T08:05:38.834Z,7.90
2022-11-05T08:08:07.880Z,10.13
2022-11-05T08:10:35.361Z,11.70
2022-11-05T08:13:02.193Z,11.67
2022-11-05T08:15:28.886Z,9.37
2022-11-05T08:18:15.830Z,9.30
2022-11-05T08:20:44.226Z,7.13
2022-11-05T08:23:11.683Z,19.27
2022-11-05T08:25:39.781Z,9.47
2022-11-05T08:28:08.779Z,9.17
2022-11-05T08:30:36.265Z,11.13
2022-11-05T08:33:11.339Z,10.47
2022-11-05T08:35:39.141Z,12.93
2022-11-05T08:38:08.058Z,13.93
2022-11-05T08:40:36.743Z,11.13
2022-11-05T08:43:05.472Z,11.33
2022-11-05T08:45:32.847Z,9.53
2022-11-05T08:48:18.696Z,10.70
2022-11-05T08:50:46.952Z,9.73
2022-11-05T08:53:13.940Z,6.87
2022-11-05T08:55:41.046Z,7.67
2022-11-05T08:58:15.140Z,6.73
2022-11-05T09:00:42.677Z,5.73
2022-11-05T09:03:10.514Z,5.77
2022-11-05T09:05:39.400Z,11.00
2022-11-05T09:08:07.253Z,10.43
2022-11-05T09:10:34.537Z,9.20
2022-11-05T09:13:01.343Z,9.37
2022-11-05T09:15:28.706Z,12.10
2022-11-05T09:17:55.310Z,10.73
2022-11-05T09:20:22.274Z,5.97
2022-11-05T09:22:49.124Z,9.93
2022-11-05T09:25:16.039Z,6.50
2022-11-05T09:27:43.066Z,7.83
2022-11-05T09:30:10.877Z,6.43
2022-11-05T09:32:37.495Z,7.97
2022-11-05T09:35:04.803Z,6.87
2022-11-05T09:37:31.295Z,6.43
2022-11-05T09:39:57.824Z,6.40
2022-11-05T09:42:34.693Z,6.73
2022-11-05T09:45:09.032Z,4.93
2022-11-05T09:47:43.543Z,5.77
2022-11-05T09:50:25.732Z,6.90
2022-11-05T09:52:52.273Z,3.77
2022-11-05T09:55:32.416Z,4.43
2022-11-05T09:58:09.535Z,5.20
2022-11-05T10:00:36.095Z,4.63
2022-11-05T10:03:13.448Z,6.37
2022-11-05T10:05:40.697Z,9.37
2022-11-05T10:08:18.226Z,4.97
2022-11-05T10:10:49.318Z,7.70
2022-11-05T10:13:22.416Z,13.07
2022-11-05T10:16:22.020Z,5.27
2022-11-05T10:18:54.597Z,5.00
2022-11-05T10:21:37.643Z,4.97
2022-11-05T10:24:17.247Z,8.47
2022-11-05T10:26:47.810Z,4.23
2022-11-05T10:29:20.448Z,6.50
2022-11-05T10:31:47.176Z,6.47
2022-11-05T10:34:17.750Z,2.87
2022-11-05T10:36:44.524Z,6.37
2022-11-05T10:39:14.697Z,6.43
2022-11-05T10:42:37.625Z,6.13
2022-11-05T10:45:22.732Z,7.07
2022-11-05T10:48:21.765Z,4.23
2022-11-05T10:50:48.603Z,6.50
2022-11-05T10:53:19.332Z,5.40
2022-11-05T10:55:51.239Z,6.43
2022-11-05T10:58:17.673Z,3.57
2022-11-05T11:01:00.475Z,3.83
2022-11-05T11:03:39.946Z,4.57
2022-11-05T11:06:24.434Z,4.23
2022-11-05T11:08:52.698Z,4.47
2022-11-05T11:11:29.175Z,3.00
2022-11-05T11:14:05.987Z,3.73
2022-11-05T11:16:37.301Z,7.50
2022-11-05T11:19:04.175Z,6.37
2022-11-05T11:21:32.725Z,11.20
2022-11-05T11:24:06.506Z,5.13
2022-11-05T11:26:36.288Z,7.20
2022-11-05T11:29:12.243Z,5.50
2022-11-05T11:31:40.177Z,5.23
2022-11-05T11:34:24.328Z,5.27
2022-11-05T11:36:55.674Z,4.77
2022-11-05T11:39:26.823Z,4.60
2022-11-05T11:42:00.249Z,5.00
2022-11-05T11:44:30.388Z,4.43
2022-11-05T11:47:02.109Z,5.10
2022-11-05T11:49:54.822Z,5.73
2022-11-05T11:52:32.564Z,3.53
2022-11-05T11:55:19.728Z,4.40
2022-11-05T11:57:48.133Z,3.23
2022-11-05T12:00:16.590Z,6.77
2022-11-05T12:03:31.086Z,3.97
2022-11-05T12:06:10.053Z,6.20
2022-11-05T12:08:56.388Z,4.23
2022-11-05T12:11:34.278Z,7.10
2022-11-05T12:14:21.500Z,5.43
2022-11-05T12:16:47.967Z,3.60
2022-11-05T12:19:58.340Z,4.37
2022-11-05T12:23:02.042Z,6.43
2022-11-05T12:25:51.851Z,4.70
2022-11-05T12:28:57.751Z,4.47
2022-11-05T12:31:28.915Z,3.80
2022-11-05T12:34:06.722Z,3.30
2022-11-05T12:36:39.234Z,5.10
2022-11-05T12:39:14.776Z,7.30
2022-11-05T12:42:02.462Z,6.47
2022-11-05T12:44:37.010Z,8.20
2022-11-05T12:47:27.605Z,6.37
2022-11-05T12:50:03.302Z,6.90
2022-11-05T12:52:51.856Z,4.60
2022-11-05T12:55:22.704Z,6.67
2022-11-05T12:57:53.504Z,5.47
2022-11-05T13:00:25.511Z,4.97
2022-11-05T13:03:50.698Z,6.07
2022-11-05T13:06:26.867Z,2.57
2022-11-05T13:09:04.518Z,4.53
2022-11-05T13:11:58.771Z,3.10
2022-11-05T13:14:43.859Z,6.37
2022-11-05T13:17:12.569Z,5.00
2022-11-05T13:19:49.922Z,7.37
2022-11-05T13:22:24.043Z,3.10
2022-11-05T13:24:55.446Z,5.13
2022-11-05T13:27:40.827Z,7.87
2022-11-05T13:30:14.959Z,4.97
2022-11-05T13:32:47.132Z,3.40
2022-11-05T13:35:27.704Z,6.00
2022-11-05T13:38:22.758Z,5.77
2022-11-05T13:41:16.798Z,6.07
2022-11-05T13:44:12.648Z,5.60
2022-11-05T13:47:16.683Z,7.27
2022-11-05T13:50:00.965Z,5.27
2022-11-05T13:53:29.099Z,6.57
2022-11-05T13:56:05.928Z,5.27
2022-11-05T13:59:15.786Z,4.63
2022-11-05T14:01:53.166Z,5.50
2022-11-05T14:04:41.184Z,6.50
2022-11-05T14:07:24.333Z,5.70
2022-11-05T14:09:58.290Z,5.37
2022-11-05T14:12:31.191Z,6.80
2022-11-05T14:15:08.561Z,7.47
2022-11-05T14:18:05.246Z,5.20
2022-11-05T14:20:31.891Z,5.17
2022-11-05T14:23:26.016Z,5.90
2022-11-05T14:26:11.344Z,8.77
2022-11-05T14:28:37.792Z,6.37
2022-11-05T14:31:19.706Z,4.33
2022-11-05T14:34:02.033Z,6.63
2022-11-05T14:36:32.357Z,6.80
2022-11-05T14:39:19.671Z,5.80
2022-11-05T14:42:11.710Z,4.80
2022-11-05T14:44:58.619Z,5.60
2022-11-05T14:47:28.851Z,7.80
2022-11-05T14:50:19.598Z,3.97
2022-11-05T14:52:54.754Z,8.53
2022-11-05T14:55:32.208Z,4.97
2022-11-05T14:57:58.637Z,8.73
2022-11-05T15:00:40.741Z,6.10
2022-11-05T15:03:31.356Z,8.77
2022-11-05T15:06:20.430Z,7.80
2022-11-05T15:08:49.761Z,4.57
2022-11-05T15:11:21.902Z,4.43
2022-11-05T15:13:54.114Z,8.37
2022-11-05T15:16:33.709Z,5.00
2022-11-05T15:19:00.650Z,4.77
2022-11-05T15:21:36.635Z,4.13
2022-11-05T15:24:04.761Z,3.13
2022-11-05T15:26:51.774Z,4.47
2022-11-05T15:29:22.248Z,4.97
2022-11-05T15:31:50.301Z,4.90
2022-11-05T15:34:33.018Z,24.53
2022-11-05T15:37:20.412Z,38.30
2022-11-05T15:39:49.275Z,34.93
2022-11-05T15:42:24.716Z,26.87
2022-11-05T15:44:56.321Z,21.17
2022-11-05T15:47:27.244Z,15.47
2022-11-05T15:50:02.446Z,13.90
2022-11-05T15:52:34.780Z,9.13
2022-11-05T15:55:07.307Z,4.97
2022-11-05T15:57:39.238Z,7.97
2022-11-05T16:00:14.899Z,4.10
2022-11-05T16:02:41.876Z,5.97
2022-11-05T16:05:13.763Z,7.77
2022-11-05T16:07:45.351Z,5.83
2022-11-05T16:10:24.525Z,6.27
2022-11-05T16:12:51.267Z,6.83
2022-11-05T16:15:26.131Z,11.40
2022-11-05T16:17:52.726Z,8.23
2022-11-05T16:20:32.312Z,7.67
2022-11-05T16:23:01.664Z,10.57
2022-11-05T16:25:40.066Z,10.63
2022-11-05T16:28:20.681Z,8.70
2022-11-05T16:31:02.464Z,11.57
2022-11-05T16:33:47.334Z,9.10
2022-11-05T16:36:14.145Z,8.57
2022-11-05T16:38:40.647Z,6.60
2022-11-05T16:41:12.666Z,5.83
2022-11-05T16:43:39.249Z,8.33
2022-11-05T16:46:05.969Z,7.00
2022-11-05T16:48:32.490Z,7.40
2022-11-05T16:50:59.068Z,9.37
2022-11-05T16:53:25.632Z,8.93
2022-11-05T16:55:52.286Z,7.00
2022-11-05T16:58:21.867Z,7.47
2022-11-05T17:00:50.363Z,7.00
2022-11-05T17:03:17.271Z,9.50
2022-11-05T17:05:43.814Z,5.90
2022-11-05T17:08:10.795Z,8.60
2022-11-05T17:10:37.768Z,7.53
2022-11-05T17:13:04.398Z,7.43
2022-11-05T17:15:35.726Z,7.43
2022-11-05T17:18:04.537Z,8.23
2022-11-05T17:20:40.310Z,11.90
2022-11-05T17:23:10.138Z,8.07
2022-11-05T17:25:37.213Z,8.70
2022-11-05T17:28:04.201Z,7.50
2022-11-05T17:30:31.004Z,9.13
2022-11-05T17:32:57.633Z,9.97
2022-11-05T17:35:24.242Z,7.80
2022-11-05T17:37:50.837Z,12.37
2022-11-05T17:40:20.543Z,8.23
2022-11-05T17:42:47.065Z,10.50
2022-11-05T17:45:14.572Z,8.97
2022-11-05T17:47:41.760Z,8.27
2022-11-05T17:50:10.797Z,8.60
2022-11-05T17:52:37.926Z,8.20
2022-11-05T17:55:05.810Z,7.63
2022-11-05T17:57:32.320Z,8.27
2022-11-05T17:59:58.799Z,8.77
2022-11-05T18:02:27.817Z,7.53
2022-11-05T18:04:54.681Z,10.00
2022-11-05T18:07:21.628Z,10.10
2022-11-05T18:09:48.144Z,14.30
2022-11-05T18:12:14.626Z,13.00
2022-11-05T18:14:41.195Z,10.43
2022-11-05T18:17:07.723Z,10.40
2022-11-05T18:19:37.275Z,11.27
2022-11-05T18:22:03.817Z,12.40
2022-11-05T18:24:30.470Z,10.07
2022-11-05T18:26:57.013Z,11.60
2022-11-05T18:29:23.740Z,11.67
2022-11-05T18:31:50.414Z,10.33
2022-11-05T18:34:16.948Z,13.03
2022-11-05T18:36:43.999Z,15.43
2022-11-05T18:39:12.070Z,10.37
2022-11-05T18:41:39.404Z,11.70
2022-11-05T18:44:06.396Z,9.83
2022-11-05T18:46:57.248Z,11.37
2022-11-05T18:49:20.407Z,12.20
2022-11-05T18:51:46.896Z,12.17
2022-11-05T18:54:13.426Z,11.40
2022-11-05T18:56:45.241Z,12.10
2022-11-05T19:02:05.212Z,13.33
2022-11-05T19:04:31.944Z,11.93
2022-11-05T19:07:03.319Z,11.57
2022-11-05T19:09:31.686Z,10.20
2022-11-05T19:11:58.220Z,11.33
2022-11-05T19:14:24.807Z,15.57
2022-11-05T19:16:51.406Z,13.97
2022-11-05T19:19:18.330Z,14.63
2022-11-05T19:21:44.903Z,11.77
2022-11-05T19:24:16.662Z,10.97
2022-11-05T19:26:43.615Z,11.03
2022-11-05T19:29:10.174Z,9.90
2022-11-05T19:31:37.045Z,11.20
2022-11-05T19:34:05.680Z,8.93
2022-11-05T19:36:33.699Z,11.43
2022-11-05T19:39:04.442Z,9.87
2022-11-05T19:41:31.017Z,13.37
2022-11-05T19:44:01.855Z,8.43
2022-11-05T19:46:30.074Z,12.60
2022-11-05T19:48:57.299Z,8.87
2022-11-05T19:51:27.157Z,10.97
2022-11-05T19:53:55.323Z,13.00
2022-11-05T19:56:27.474Z,8.07
2022-11-05T19:58:54.543Z,7.80
2022-11-05T20:01:23.949Z,8.30
2022-11-05T20:03:51.974Z,9.87
2022-11-05T20:06:28.508Z,9.00
2022-11-05T20:09:20.684Z,12.10
2022-11-05T20:11:45.594Z,9.77
2022-11-05T20:14:12.882Z,9.60
2022-11-05T20:16:40.660Z,9.93
2022-11-05T20:19:14.496Z,11.07
2022-11-05T20:21:41.864Z,11.30
2022-11-05T20:24:09.328Z,10.03
2022-11-05T20:26:37.107Z,8.30
2022-11-05T20:29:05.755Z,10.87
2022-11-05T20:31:33.999Z,10.63
2022-11-05T20:34:01.184Z,9.87
2022-11-05T20:36:28.405Z,8.27
2022-11-05T20:38:58.097Z,11.57
2022-11-05T20:41:25.942Z,10.00
2022-11-05T20:43:53.554Z,11.97
2022-11-05T20:46:22.421Z,11.37
2022-11-05T20:48:50.077Z,10.07
2022-11-05T20:51:20.198Z,13.93
2022-11-05T20:53:48.047Z,11.33
2022-11-05T20:56:26.945Z,11.43
2022-11-05T20:58:54.134Z,13.43
2022-11-05T21:01:21.599Z,10.83
2022-11-05T21:03:48.807Z,13.00
2022-11-05T21:06:16.692Z,11.50
2022-11-05T21:08:46.293Z,10.90
2022-11-05T21:11:12.995Z,14.47
2022-11-05T21:13:40.273Z,12.27
2022-11-05T21:16:10.960Z,13.83
2022-11-05T21:18:40.708Z,14.07
2022-11-05T21:21:09.136Z,13.93
2022-11-05T21:23:36.229Z,12.47
2022-11-05T21:26:08.451Z,12.73
2022-11-05T21:28:37.055Z,12.80
2022-11-05T21:31:05.302Z,13.70
2022-11-05T21:33:33.587Z,11.70
2022-11-05T21:36:09.339Z,10.87
2022-11-05T21:38:36.204Z,14.47
2022-11-05T21:41:04.035Z,13.33
2022-11-05T21:43:30.890Z,12.33
2022-11-05T21:46:01.477Z,13.73
2022-11-05T21:48:28.117Z,12.83
2022-11-05T21:51:13.162Z,12.33
2022-11-05T21:53:58.769Z,15.67
2022-11-05T21:56:45.598Z,13.00
2022-11-05T21:59:32.748Z,12.20
2022-11-05T22:02:02.982Z,13.67
2022-11-05T22:04:36.693Z,14.37
2022-11-05T22:07:04.009Z,12.13
2022-11-05T22:09:30.846Z,14.00
2022-11-05T22:11:57.699Z,13.30
2022-11-05T22:14:24.745Z,11.67
2022-11-05T22:16:52.086Z,17.17
2022-11-05T22:19:20.302Z,13.70
2022-11-05T22:21:47.667Z,16.23
2022-11-05T22:24:14.780Z,13.53
2022-11-05T22:26:42.431Z,12.33
2022-11-05T22:29:10.524Z,14.30
2022-11-05T22:31:37.117Z,12.60
2022-11-05T22:34:05.014Z,15.63
2022-11-05T22:36:34.045Z,12.03
2022-11-05T22:39:01.171Z,13.67
2022-11-05T22:41:27.663Z,11.83
2022-11-05T22:43:55.078Z,12.57
2022-11-05T22:46:23.392Z,13.20
2022-11-05T22:48:51.898Z,15.20
2022-11-05T22:51:22.192Z,12.50
2022-11-05T22:53:49.313Z,14.67
2022-11-05T22:56:18.823Z,15.67
2022-11-05T22:58:46.321Z,12.67
2022-11-05T23:01:14.100Z,12.03
2022-11-05T23:03:43.081Z,10.63
2022-11-05T23:06:37.009Z,12.73
2022-11-05T23:09:25.364Z,11.53
2022-11-05T23:11:53.691Z,11.00
2022-11-05T23:14:20.690Z,10.63
2022-11-05T23:17:05.711Z,11.60
2022-11-05T23:19:50.775Z,11.37
2022-11-05T23:22:44.021Z,12.80
2022-11-05T23:25:18.067Z,12.90
2022-11-05T23:27:46.332Z,11.93
2022-11-05T23:30:24.688Z,12.43
2022-11-05T23:32:52.538Z,10.70
2022-11-05T23:35:39.116Z,10.97
2022-11-05T23:38:24.318Z,11.80
2022-11-05T23:41:09.100Z,9.10
2022-11-05T23:43:54.363Z,12.07
2022-11-05T23:46:39.165Z,10.77
2022-11-05T23:49:05.700Z,9.97
2022-11-05T23:51:32.231Z,10.67
2022-11-05T23:53:58.746Z,11.53
2022-11-05T23:56:25.236Z,9.80
2022-11-05T23:58:51.743Z,10.93
